createdAt,value
2022-08-28T00:01:01.870Z,9.38
2022-08-28T00:03:35.323Z,9.75
2022-08-28T00:06:06.203Z,9.68
2022-08-28T00:08:36.580Z,8.00
2022-08-28T00:11:07.460Z,8.90
2022-08-28T00:13:38.065Z,7.90
2022-08-28T00:16:09.665Z,7.32
2022-08-28T00:18:44.116Z,8.73
2022-08-28T00:21:17.833Z,10.25
2022-08-28T00:26:38.727Z,11.50
2022-08-28T00:29:07.477Z,12.25
2022-08-28T00:31:40.207Z,12.82
2022-08-28T00:34:13.914Z,14.55
2022-08-28T00:36:45.403Z,13.82
2022-08-28T00:39:15.719Z,13.52
2022-08-28T00:41:52.506Z,14.43
2022-08-28T00:44:30.871Z,13.52
2022-08-28T00:47:03.358Z,13.35
2022-08-28T00:49:41.074Z,13.70
2022-08-28T00:52:11.788Z,14.15
2022-08-28T00:54:59.446Z,14.45
2022-08-28T00:57:35.223Z,14.95
2022-08-28T01:00:12.367Z,14.90
2022-08-28T01:02:44.076Z,15.80
2022-08-28T01:05:19.355Z,15.27
2022-08-28T01:07:50.948Z,14.88
2022-08-28T01:10:25.944Z,16.13
2022-08-28T01:12:57.558Z,17.23
2022-08-28T01:15:32.968Z,16.33
2022-08-28T01:18:08.573Z,16.25
2022-08-28T01:20:50.753Z,16.58
2022-08-28T01:23:42.811Z,16.05
2022-08-28T01:26:13.383Z,16.52
2022-08-28T01:28:44.013Z,15.48
2022-08-28T01:31:17.210Z,15.40
2022-08-28T01:33:49.592Z,15.13
2022-08-28T01:36:21.367Z,15.18
2022-08-28T01:39:09.760Z,14.20
2022-08-28T01:41:42.307Z,13.10
2022-08-28T01:44:12.808Z,12.52
2022-08-28T01:46:44.935Z,12.15
2022-08-28T01:49:15.656Z,12.18
2022-08-28T01:54:19.172Z,10.90
2022-08-28T01:56:49.716Z,11.30
2022-08-28T01:59:20.312Z,11.60
2022-08-28T02:01:51.065Z,9.82
2022-08-28T02:04:21.314Z,9.93
2022-08-28T02:07:02.164Z,11.07
2022-08-28T02:09:35.060Z,9.25
2022-08-28T02:12:07.096Z,10.88
2022-08-28T02:14:38.787Z,9.90
2022-08-28T02:17:09.034Z,10.18
2022-08-28T02:19:39.227Z,9.68
2022-08-28T02:22:09.550Z,8.77
2022-08-28T02:24:42.745Z,10.35
2022-08-28T02:27:13.063Z,9.60
2022-08-28T02:29:44.282Z,10.38
2022-08-28T02:32:14.807Z,10.27
2022-08-28T02:34:45.054Z,8.60
2022-08-28T02:37:15.681Z,8.90
2022-08-28T02:39:48.566Z,9.07
2022-08-28T02:42:19.188Z,9.18
2022-08-28T02:44:49.691Z,8.38
2022-08-28T02:47:20.220Z,8.95
2022-08-28T02:49:50.508Z,7.88
2022-08-28T02:52:22.027Z,7.82
2022-08-28T02:54:54.867Z,7.35
2022-08-28T02:57:25.759Z,7.03
2022-08-28T02:59:56.688Z,6.90
2022-08-28T03:02:26.948Z,6.57
2022-08-28T03:04:57.349Z,6.65
2022-08-28T03:07:28.052Z,6.72
2022-08-28T03:12:31.023Z,7.75
2022-08-28T03:15:01.202Z,6.85
2022-08-28T03:17:31.964Z,7.32
2022-08-28T03:22:44.459Z,6.95
2022-08-28T03:25:17.872Z,7.20
2022-08-28T03:27:48.139Z,6.03
2022-08-28T03:30:19.552Z,6.85
2022-08-28T03:32:49.996Z,6.15
2022-08-28T03:35:21.990Z,6.88
2022-08-28T03:37:52.182Z,6.50
2022-08-28T03:40:25.367Z,6.57
2022-08-28T03:42:55.815Z,5.93
2022-08-28T03:45:26.022Z,6.05
2022-08-28T03:47:57.067Z,6.68
2022-08-28T03:50:28.960Z,6.00
2022-08-28T03:52:59.843Z,7.10
2022-08-28T03:55:32.659Z,5.50
2022-08-28T03:58:04.595Z,5.43
2022-08-28T04:00:36.306Z,5.70
2022-08-28T04:05:37.736Z,4.82
2022-08-28T04:10:41.339Z,4.57
2022-08-28T04:13:11.767Z,4.57
2022-08-28T04:15:42.039Z,4.45
2022-08-28T04:18:13.479Z,4.10
2022-08-28T04:20:46.418Z,4.20
2022-08-28T04:23:16.728Z,4.50
2022-08-28T04:25:49.470Z,4.72
2022-08-28T04:28:19.790Z,4.32
2022-08-28T04:30:49.981Z,4.53
2022-08-28T04:33:20.173Z,4.43
2022-08-28T04:35:50.459Z,5.00
2022-08-28T04:38:21.339Z,4.95
2022-08-28T04:40:54.128Z,5.45
2022-08-28T04:43:24.370Z,5.72
2022-08-28T04:45:56.396Z,5.22
2022-08-28T04:48:26.742Z,4.95
2022-08-28T04:50:56.918Z,5.20
2022-08-28T04:53:27.488Z,3.97
2022-08-28T04:56:00.810Z,4.53
2022-08-28T04:58:32.347Z,4.40
2022-08-28T05:01:08.399Z,3.75
2022-08-28T05:03:39.252Z,3.53
2022-08-28T05:08:40.343Z,3.33
2022-08-28T05:11:22.105Z,3.83
2022-08-28T05:14:06.537Z,3.72
2022-08-28T05:16:43.093Z,3.72
2022-08-28T05:19:13.441Z,4.10
2022-08-28T05:21:44.195Z,4.40
2022-08-28T05:26:48.201Z,4.05
2022-08-28T05:29:19.593Z,4.85
2022-08-28T05:31:50.055Z,4.13
2022-08-28T05:34:20.869Z,3.33
2022-08-28T05:39:21.334Z,3.22
2022-08-28T05:41:54.143Z,3.65
2022-08-28T05:44:24.376Z,3.70
2022-08-28T05:46:54.736Z,3.60
2022-08-28T05:49:25.253Z,5.85
2022-08-28T05:51:55.479Z,4.75
2022-08-28T05:54:25.772Z,3.47
2022-08-28T05:56:59.034Z,3.45
2022-08-28T05:59:29.194Z,3.13
2022-08-28T06:02:03.623Z,2.83
2022-08-28T06:04:35.677Z,3.20
2022-08-28T06:07:08.216Z,3.13
2022-08-28T06:09:38.498Z,3.05
2022-08-28T06:12:12.729Z,4.03
2022-08-28T06:14:44.976Z,4.10
2022-08-28T06:17:15.173Z,4.43
2022-08-28T06:19:45.425Z,3.75
2022-08-28T06:22:15.612Z,3.40
2022-08-28T06:24:45.727Z,4.30
2022-08-28T06:27:19.086Z,4.00
2022-08-28T06:29:49.288Z,3.28
2022-08-28T06:32:19.493Z,2.85
2022-08-28T06:34:49.702Z,3.22
2022-08-28T06:37:19.929Z,3.22
2022-08-28T06:39:50.081Z,3.22
2022-08-28T06:42:23.144Z,3.40
2022-08-28T06:44:53.294Z,3.58
2022-08-28T06:47:23.745Z,3.10
2022-08-28T06:49:54.598Z,3.25
2022-08-28T06:52:24.816Z,3.08
2022-08-28T06:54:55.838Z,3.22
2022-08-28T06:57:28.910Z,3.50
2022-08-28T06:59:59.444Z,2.92
2022-08-28T07:02:29.762Z,3.33
2022-08-28T07:05:00.588Z,3.38
2022-08-28T07:10:03.051Z,3.80
2022-08-28T07:12:35.827Z,3.72
2022-08-28T07:15:06.724Z,3.83
2022-08-28T07:17:36.986Z,8.80
2022-08-28T07:20:08.319Z,12.05
2022-08-28T07:22:40.929Z,3.55
2022-08-28T07:25:13.008Z,4.03
2022-08-28T07:27:45.802Z,3.80
2022-08-28T07:30:17.176Z,3.50
2022-08-28T07:32:49.344Z,3.65
2022-08-28T07:35:21.050Z,3.10
2022-08-28T07:37:51.877Z,3.65
2022-08-28T07:40:22.479Z,3.42
2022-08-28T07:43:07.754Z,3.25
2022-08-28T07:45:38.131Z,3.42
2022-08-28T07:48:11.634Z,4.35
2022-08-28T07:50:42.052Z,4.15
2022-08-28T07:53:12.635Z,4.32
2022-08-28T07:55:42.796Z,4.45
2022-08-28T07:58:16.354Z,3.60
2022-08-28T08:00:46.566Z,3.75
2022-08-28T08:03:16.982Z,3.95
2022-08-28T08:05:55.955Z,3.63
2022-08-28T08:08:26.831Z,4.25
2022-08-28T08:11:03.107Z,4.28
2022-08-28T08:13:40.736Z,3.92
2022-08-28T08:16:15.053Z,3.78
2022-08-28T08:18:45.946Z,4.80
2022-08-28T08:21:19.258Z,4.35
2022-08-28T08:23:50.684Z,3.80
2022-08-28T08:26:23.790Z,4.47
2022-08-28T08:28:56.922Z,3.85
2022-08-28T08:31:32.500Z,4.57
2022-08-28T08:34:06.663Z,3.70
2022-08-28T08:36:39.205Z,4.05
2022-08-28T08:39:11.013Z,3.88
2022-08-28T08:41:48.382Z,4.43
2022-08-28T08:44:33.508Z,4.15
2022-08-28T08:47:15.140Z,5.00
2022-08-28T08:49:54.062Z,4.30
2022-08-28T08:52:37.569Z,4.47
2022-08-28T08:55:27.209Z,5.05
2022-08-28T08:58:06.662Z,4.00
2022-08-28T09:00:48.877Z,4.15
2022-08-28T09:03:27.713Z,5.47
2022-08-28T09:06:03.415Z,4.57
2022-08-28T09:08:39.963Z,3.85
2022-08-28T09:11:26.280Z,5.80
2022-08-28T09:14:04.889Z,4.20
2022-08-28T09:16:41.732Z,3.90
2022-08-28T09:19:16.169Z,3.95
2022-08-28T09:21:48.817Z,4.85
2022-08-28T09:24:29.235Z,4.78
2022-08-28T09:27:03.620Z,4.38
2022-08-28T09:29:37.769Z,6.65
2022-08-28T09:32:26.523Z,8.30
2022-08-28T09:35:22.065Z,4.80
2022-08-28T09:37:52.245Z,4.55
2022-08-28T09:40:48.337Z,6.13
2022-08-28T09:43:30.244Z,4.63
2022-08-28T09:46:04.654Z,4.85
2022-08-28T09:48:41.255Z,4.55
2022-08-28T09:51:13.877Z,4.60
2022-08-28T09:53:59.761Z,4.68
2022-08-28T09:56:34.102Z,4.93
2022-08-28T09:59:09.455Z,4.82
2022-08-28T10:02:03.252Z,4.30
2022-08-28T10:05:00.252Z,4.97
2022-08-28T10:07:41.958Z,5.43
2022-08-28T10:10:34.847Z,6.20
2022-08-28T10:13:14.721Z,5.47
2022-08-28T10:16:05.007Z,5.47
2022-08-28T10:18:46.730Z,5.28
2022-08-28T10:21:27.356Z,4.72
2022-08-28T10:24:26.078Z,5.32
2022-08-28T10:27:07.600Z,5.03
2022-08-28T10:29:51.644Z,6.30
2022-08-28T10:33:03.901Z,6.10
2022-08-28T10:35:49.569Z,6.90
2022-08-28T10:38:33.825Z,7.07
2022-08-28T10:41:12.230Z,6.68
2022-08-28T10:43:48.859Z,7.13
2022-08-28T10:46:27.225Z,6.78
2022-08-28T10:49:05.100Z,6.85
2022-08-28T10:51:43.599Z,7.57
2022-08-28T10:54:26.409Z,8.30
2022-08-28T10:57:03.242Z,7.60
2022-08-28T10:59:42.175Z,7.38
2022-08-28T11:02:16.632Z,7.72
2022-08-28T11:04:50.401Z,7.78
2022-08-28T11:07:31.345Z,7.38
2022-08-28T11:10:22.749Z,7.22
2022-08-28T11:12:55.023Z,6.80
2022-08-28T11:15:56.286Z,7.32
2022-08-28T11:18:57.820Z,6.47
2022-08-28T11:21:32.248Z,6.78
2022-08-28T11:24:10.052Z,5.88
2022-08-28T11:26:59.450Z,5.50
2022-08-28T11:30:06.616Z,5.55
2022-08-28T11:32:59.415Z,5.70
2022-08-28T11:35:48.514Z,5.20
2022-08-28T11:39:15.214Z,5.30
2022-08-28T11:42:39.436Z,6.03
2022-08-28T11:45:22.624Z,7.25
2022-08-28T11:47:59.481Z,5.65
2022-08-28T11:50:36.707Z,5.10
2022-08-28T11:53:46.682Z,5.65
2022-08-28T11:56:51.734Z,5.33
2022-08-28T11:59:53.335Z,6.13
2022-08-28T12:02:51.179Z,4.78
2022-08-28T12:05:54.901Z,4.97
2022-08-28T12:09:13.444Z,4.82
2022-08-28T12:12:04.366Z,4.43
2022-08-28T12:15:07.827Z,5.22
2022-08-28T12:17:53.888Z,5.30
2022-08-28T12:21:01.796Z,4.72
2022-08-28T12:23:45.117Z,4.55
2022-08-28T12:26:27.407Z,4.75
2022-08-28T12:29:01.453Z,4.68
2022-08-28T12:32:18.839Z,4.68
2022-08-28T12:35:21.085Z,4.40
2022-08-28T12:38:05.056Z,3.88
2022-08-28T12:40:50.646Z,4.55
2022-08-28T12:43:35.808Z,4.75
2022-08-28T12:46:18.895Z,4.32
2022-08-28T12:48:59.561Z,4.40
2022-08-28T12:51:35.812Z,4.53
2022-08-28T12:54:09.054Z,4.28
2022-08-28T12:56:41.883Z,4.32
2022-08-28T12:59:35.296Z,10.90
2022-08-28T13:02:07.036Z,4.75
2022-08-28T13:04:41.084Z,5.03
2022-08-28T13:07:16.977Z,4.50
2022-08-28T13:09:52.074Z,4.72
2022-08-28T13:12:31.978Z,4.63
2022-08-28T13:16:01.633Z,4.05
2022-08-28T13:18:56.636Z,4.60
2022-08-28T13:21:39.276Z,4.88
2022-08-28T13:24:43.703Z,4.32
2022-08-28T13:27:25.471Z,5.00
2022-08-28T13:30:04.659Z,4.72
2022-08-28T13:32:42.006Z,5.18
2022-08-28T13:35:37.473Z,5.05
2022-08-28T13:38:11.950Z,4.40
2022-08-28T13:40:58.799Z,4.32
2022-08-28T13:43:32.827Z,4.75
2022-08-28T13:46:03.032Z,4.40
2022-08-28T13:51:10.726Z,4.25
2022-08-28T13:53:42.850Z,6.88
2022-08-28T13:56:13.472Z,4.90
2022-08-28T13:58:43.871Z,4.43
2022-08-28T14:01:44.920Z,4.80
2022-08-28T14:04:15.332Z,4.70
2022-08-28T14:06:45.710Z,4.60
2022-08-28T14:09:17.684Z,4.00
2022-08-28T14:11:49.786Z,3.72
2022-08-28T14:14:20.703Z,3.78
2022-08-28T14:16:51.683Z,4.15
2022-08-28T14:19:25.878Z,3.85
2022-08-28T14:21:56.350Z,3.78
2022-08-28T14:24:27.201Z,3.60
2022-08-28T14:26:58.673Z,3.70
2022-08-28T14:29:29.094Z,4.00
2022-08-28T14:31:59.881Z,4.15
2022-08-28T14:34:34.866Z,3.60
2022-08-28T14:37:05.104Z,3.97
2022-08-28T14:39:35.904Z,3.65
2022-08-28T14:42:13.083Z,4.68
2022-08-28T14:44:43.566Z,3.92
2022-08-28T14:47:14.716Z,3.53
2022-08-28T14:49:47.704Z,3.75
2022-08-28T14:52:19.503Z,5.03
2022-08-28T14:54:49.751Z,4.03
2022-08-28T14:57:20.054Z,3.35
2022-08-28T14:59:50.285Z,3.65
2022-08-28T15:02:20.448Z,3.72
2022-08-28T15:04:53.304Z,3.50
2022-08-28T15:07:23.940Z,3.97
2022-08-28T15:09:55.096Z,3.70
2022-08-28T15:12:25.847Z,3.60
2022-08-28T15:14:57.239Z,3.83
2022-08-28T15:17:33.952Z,5.10
2022-08-28T15:20:09.174Z,4.20
2022-08-28T15:22:39.436Z,3.80
2022-08-28T15:25:10.863Z,4.15
2022-08-28T15:27:41.569Z,3.60
2022-08-28T15:30:13.867Z,3.40
2022-08-28T15:32:46.240Z,3.63
2022-08-28T15:35:19.292Z,3.70
2022-08-28T15:37:49.518Z,3.28
2022-08-28T15:40:32.434Z,3.53
2022-08-28T15:43:02.720Z,3.80
2022-08-28T15:45:33.028Z,3.75
2022-08-28T15:48:03.266Z,3.65
2022-08-28T15:50:36.396Z,3.08
2022-08-28T15:53:07.913Z,3.25
2022-08-28T15:55:38.133Z,3.10
2022-08-28T15:58:08.832Z,3.17
2022-08-28T16:00:44.951Z,3.40
2022-08-28T16:03:15.696Z,3.10
2022-08-28T16:05:49.701Z,3.72
2022-08-28T16:08:19.958Z,3.42
2022-08-28T16:10:51.726Z,3.05
2022-08-28T16:13:23.832Z,4.32
2022-08-28T16:15:54.133Z,10.85
2022-08-28T16:18:24.300Z,5.10
2022-08-28T16:23:31.725Z,2.83
2022-08-28T16:26:02.676Z,3.25
2022-08-28T16:28:32.950Z,3.40
2022-08-28T16:33:38.479Z,3.00
2022-08-28T16:36:16.903Z,3.08
2022-08-28T16:39:00.469Z,3.42
2022-08-28T16:41:34.975Z,3.05
2022-08-28T16:44:05.900Z,3.30
2022-08-28T16:46:36.348Z,3.10
2022-08-28T16:49:07.002Z,3.30
2022-08-28T16:51:40.508Z,2.90
2022-08-28T16:54:10.794Z,3.03
2022-08-28T16:56:41.124Z,2.88
2022-08-28T16:59:11.406Z,2.83
2022-08-28T17:01:42.635Z,3.00
2022-08-28T17:04:13.692Z,3.10
2022-08-28T17:06:47.628Z,3.00
2022-08-28T17:09:20.953Z,3.42
2022-08-28T17:11:52.157Z,11.27
2022-08-28T17:14:23.123Z,5.88
2022-08-28T17:16:54.931Z,3.88
2022-08-28T17:19:25.376Z,3.28
2022-08-28T17:22:10.642Z,3.08
2022-08-28T17:24:40.925Z,3.20
2022-08-28T17:27:11.324Z,2.90
2022-08-28T17:29:41.610Z,2.90
2022-08-28T17:32:14.670Z,3.28
2022-08-28T17:34:45.141Z,2.85
2022-08-28T17:39:48.283Z,3.03
2022-08-28T17:42:18.586Z,3.08
2022-08-28T17:44:48.789Z,2.80
2022-08-28T17:47:26.278Z,2.85
2022-08-28T17:50:01.782Z,3.33
2022-08-28T17:52:35.439Z,2.90
2022-08-28T17:55:06.725Z,3.38
2022-08-28T17:57:36.910Z,3.10
2022-08-28T18:00:10.957Z,2.95
2022-08-28T18:02:44.422Z,3.20
2022-08-28T18:05:16.777Z,3.22
2022-08-28T18:07:49.839Z,3.80
2022-08-28T18:10:20.000Z,3.65
2022-08-28T18:12:50.530Z,3.40
2022-08-28T18:17:50.952Z,3.30
2022-08-28T18:20:22.329Z,3.30
2022-08-28T18:22:55.520Z,3.15
2022-08-28T18:25:50.795Z,3.30
2022-08-28T18:28:25.181Z,5.10
2022-08-28T18:30:56.027Z,5.20
2022-08-28T18:33:27.434Z,4.53
2022-08-28T18:35:57.690Z,3.67
2022-08-28T18:38:35.086Z,3.00
2022-08-28T18:41:06.060Z,2.92
2022-08-28T18:43:36.733Z,2.58
2022-08-28T18:46:09.364Z,2.92
2022-08-28T18:48:40.761Z,2.80
2022-08-28T18:51:13.563Z,3.70
2022-08-28T18:53:46.514Z,2.90
2022-08-28T18:56:19.242Z,3.70
2022-08-28T18:58:51.912Z,4.75
2022-08-28T19:01:22.220Z,5.88
2022-08-28T19:03:52.601Z,5.15
2022-08-28T19:06:22.936Z,4.90
2022-08-28T19:08:55.914Z,3.80
2022-08-28T19:11:26.117Z,4.75
2022-08-28T19:13:56.271Z,3.22
2022-08-28T19:16:26.475Z,3.22
2022-08-28T19:18:56.663Z,2.85
2022-08-28T19:21:27.538Z,2.88
2022-08-28T19:24:01.100Z,2.47
2022-08-28T19:26:32.065Z,3.53
2022-08-28T19:29:03.128Z,3.28
2022-08-28T19:31:35.919Z,3.22
2022-08-28T19:34:07.769Z,2.92
2022-08-28T19:36:38.804Z,3.40
2022-08-28T19:39:11.723Z,3.20
2022-08-28T19:41:43.704Z,3.10
2022-08-28T19:44:14.190Z,3.15
2022-08-28T19:46:44.763Z,2.88
2022-08-28T19:49:15.121Z,3.22
2022-08-28T19:51:45.390Z,3.05
2022-08-28T19:54:18.297Z,3.03
2022-08-28T19:56:48.472Z,3.05
2022-08-28T19:59:18.732Z,2.70
2022-08-28T20:01:49.027Z,3.10
2022-08-28T20:04:19.644Z,2.95
2022-08-28T20:06:50.104Z,2.90
2022-08-28T20:09:23.036Z,2.90
2022-08-28T20:11:53.248Z,3.15
2022-08-28T20:14:24.545Z,3.15
2022-08-28T20:16:55.467Z,3.00
2022-08-28T20:19:25.760Z,2.90
2022-08-28T20:21:55.938Z,2.90
2022-08-28T20:24:29.216Z,2.75
2022-08-28T20:26:59.687Z,3.20
2022-08-28T20:29:30.215Z,3.13
2022-08-28T20:32:00.866Z,4.07
2022-08-28T20:34:32.076Z,3.40
2022-08-28T20:37:02.464Z,3.13
2022-08-28T20:39:37.171Z,3.15
2022-08-28T20:42:07.721Z,2.95
2022-08-28T20:44:38.294Z,2.75
2022-08-28T20:47:09.635Z,3.47
2022-08-28T20:49:39.747Z,3.20
2022-08-28T20:52:10.298Z,3.35
2022-08-28T20:54:44.880Z,3.05
2022-08-28T20:57:18.635Z,3.28
2022-08-28T20:59:50.263Z,2.70
2022-08-28T21:02:23.461Z,3.50
2022-08-28T21:04:55.257Z,3.03
2022-08-28T21:07:28.058Z,3.10
2022-08-28T21:10:07.157Z,3.00
2022-08-28T21:12:38.921Z,3.10
2022-08-28T21:15:12.593Z,3.10
2022-08-28T21:17:43.077Z,2.90
2022-08-28T21:20:17.498Z,3.38
2022-08-28T21:22:48.496Z,3.80
2022-08-28T21:25:25.885Z,3.45
2022-08-28T21:27:56.353Z,2.92
2022-08-28T21:30:29.680Z,3.30
2022-08-28T21:33:00.136Z,4.43
2022-08-28T21:35:30.442Z,3.13
2022-08-28T21:38:00.679Z,3.28
2022-08-28T21:40:35.341Z,3.00
2022-08-28T21:43:05.795Z,3.20
2022-08-28T21:45:36.604Z,2.90
2022-08-28T21:50:37.213Z,3.03
2022-08-28T21:53:07.450Z,3.50
2022-08-28T21:55:40.278Z,3.10
2022-08-28T21:58:11.967Z,3.10
2022-08-28T22:00:42.198Z,2.88
2022-08-28T22:03:12.375Z,2.97
2022-08-28T22:05:45.735Z,3.10
2022-08-28T22:08:17.399Z,3.10
2022-08-28T22:10:50.274Z,3.65
2022-08-28T22:13:21.023Z,3.03
2022-08-28T22:15:51.226Z,2.88
2022-08-28T22:18:21.719Z,3.35
2022-08-28T22:21:14.660Z,2.95
2022-08-28T22:23:45.113Z,3.70
2022-08-28T22:26:21.456Z,3.45
2022-08-28T22:28:51.758Z,3.67
2022-08-28T22:31:22.041Z,3.30
2022-08-28T22:33:52.653Z,3.78
2022-08-28T22:36:24.377Z,3.67
2022-08-28T22:38:59.765Z,3.60
2022-08-28T22:41:33.109Z,3.75
2022-08-28T22:44:03.678Z,3.80
2022-08-28T22:46:33.879Z,3.67
2022-08-28T22:49:04.056Z,3.45
2022-08-28T22:51:37.336Z,3.60
2022-08-28T22:54:08.760Z,3.88
2022-08-28T22:56:42.256Z,3.80
2022-08-28T22:59:12.751Z,3.95
2022-08-28T23:01:44.587Z,3.50
2022-08-28T23:04:16.125Z,3.50
2022-08-28T23:06:46.452Z,3.80
2022-08-28T23:09:16.679Z,3.28
2022-08-28T23:11:50.077Z,4.15
2022-08-28T23:14:20.873Z,3.75
2022-08-28T23:19:21.618Z,3.93
2022-08-28T23:21:52.480Z,3.63
2022-08-28T23:24:22.917Z,3.65
2022-08-28T23:26:55.784Z,3.50
2022-08-28T23:29:26.211Z,3.50
2022-08-28T23:31:56.423Z,3.67
2022-08-28T23:34:28.431Z,3.65
2022-08-28T23:36:58.714Z,3.95
2022-08-28T23:39:29.148Z,3.70
2022-08-28T23:42:03.210Z,4.18
2022-08-28T23:44:33.688Z,3.58
2022-08-28T23:47:04.140Z,3.80
2022-08-28T23:49:35.538Z,4.10
2022-08-28T23:52:14.360Z,3.78
2022-08-28T23:54:44.597Z,3.78
2022-08-28T23:57:18.077Z,3.85
2022-08-28T23:59:48.381Z,3.75
